Slater, Wyoming
Current Conditions -  °F | °C
As of 8:55 PM on Tuesday 25 Nov 2014 (Local Time) from KGUR Reporting Station
Light Snow Light Snow  
Wind Chill: 25°   Ceiling: 2200
Heat Index: 36°   Visibility: 4mi
Dew Point: 32°   Wind: 20mph
Humidity: 87%   Direction: 330°NNW
Pressure: 30.07"   Gusts: 26mph
Location:  42.0178°N, 105.098°W
Report Text: KGUR 260355Z AUTO 33017G23KT 4SM -SN SCT018 BKN022 OVC028 02/00 A3007 RMK AO2 T00200000
Loading
Personal Weather Stations






























Interactive Weather Map New forecast layout! Learn more

10-Day Weather Forecast

Advertisements
Track Severe Weather on mobile